sensor_id;sensor_type;location;lat;lon;timestamp;P1;durP1;ratioP1;P2;durP2;ratioP2
23082;SDS011;11709;52.420;10.538;2022-12-29T00:02:37;23.85;;;22.50;;
23082;SDS011;11709;52.420;10.538;2022-12-29T00:06:40;23.22;;;21.97;;
23082;SDS011;11709;52.420;10.538;2022-12-29T00:10:43;27.60;;;26.17;;
23082;SDS011;11709;52.420;10.538;2022-12-29T00:14:45;29.83;;;28.27;;
23082;SDS011;11709;52.420;10.538;2022-12-29T00:19:05;31.10;;;29.47;;
23082;SDS011;11709;52.420;10.538;2022-12-29T00:23:10;30.30;;;28.77;;
23082;SDS011;11709;52.420;10.538;2022-12-29T00:27:31;29.83;;;28.33;;
23082;SDS011;11709;52.420;10.538;2022-12-29T00:31:52;30.03;;;28.50;;
23082;SDS011;11709;52.420;10.538;2022-12-29T00:36:15;29.93;;;28.43;;
23082;SDS011;11709;52.420;10.538;2022-12-29T00:40:18;28.10;;;26.70;;
23082;SDS011;11709;52.420;10.538;2022-12-29T00:44:39;30.90;;;29.23;;
23082;SDS011;11709;52.420;10.538;2022-12-29T00:48:42;27.40;;;26.00;;
23082;SDS011;11709;52.420;10.538;2022-12-29T00:53:02;27.07;;;25.60;;
23082;SDS011;11709;52.420;10.538;2022-12-29T00:57:05;24.73;;;23.43;;
23082;SDS011;11709;52.420;10.538;2022-12-29T01:01:09;26.57;;;25.07;;
23082;SDS011;11709;52.420;10.538;2022-12-29T01:05:11;24.53;;;23.23;;
23082;SDS011;11709;52.420;10.538;2022-12-29T01:09:14;26.20;;;24.83;;
23082;SDS011;11709;52.420;10.538;2022-12-29T01:13:35;24.67;;;23.43;;
23082;SDS011;11709;52.420;10.538;2022-12-29T01:17:38;26.10;;;24.77;;
23082;SDS011;11709;52.420;10.538;2022-12-29T01:21:41;28.73;;;27.17;;
23082;SDS011;11709;52.420;10.538;2022-12-29T01:25:44;26.13;;;24.73;;
23082;SDS011;11709;52.420;10.538;2022-12-29T01:29:46;28.95;;;27.37;;
23082;SDS011;11709;52.420;10.538;2022-12-29T01:33:49;34.93;;;33.10;;
23082;SDS011;11709;52.420;10.538;2022-12-29T01:37:51;34.43;;;32.67;;
23082;SDS011;11709;52.420;10.538;2022-12-29T01:41:54;36.13;;;34.37;;
23082;SDS011;11709;52.420;10.538;2022-12-29T01:45:56;37.30;;;35.47;;
23082;SDS011;11709;52.420;10.538;2022-12-29T01:50:01;33.83;;;32.20;;
23082;SDS011;11709;52.420;10.538;2022-12-29T01:54:05;34.03;;;32.37;;
23082;SDS011;11709;52.420;10.538;2022-12-29T01:58:10;33.77;;;32.13;;
23082;SDS011;11709;52.420;10.538;2022-12-29T02:02:15;31.30;;;29.73;;
23082;SDS011;11709;52.420;10.538;2022-12-29T02:06:23;32.87;;;31.20;;
23082;SDS011;11709;52.420;10.538;2022-12-29T02:10:28;31.17;;;29.70;;
23082;SDS011;11709;52.420;10.538;2022-12-29T02:14:32;31.07;;;29.53;;
23082;SDS011;11709;52.420;10.538;2022-12-29T02:40:17;36.50;;;34.77;;
23082;SDS011;11709;52.420;10.538;2022-12-29T02:48:37;32.07;;;30.40;;
23082;SDS011;11709;52.420;10.538;2022-12-29T02:52:50;30.43;;;28.87;;
23082;SDS011;11709;52.420;10.538;2022-12-29T02:56:53;30.20;;;28.60;;
23082;SDS011;11709;52.420;10.538;2022-12-29T03:01:02;30.97;;;29.37;;
23082;SDS011;11709;52.420;10.538;2022-12-29T03:13:48;31.17;;;29.57;;
23082;SDS011;11709;52.420;10.538;2022-12-29T03:18:13;32.70;;;31.00;;
23082;SDS011;11709;52.420;10.538;2022-12-29T03:22:22;29.60;;;28.13;;
23082;SDS011;11709;52.420;10.538;2022-12-29T03:26:31;31.23;;;29.67;;
23082;SDS011;11709;52.420;10.538;2022-12-29T03:30:34;32.20;;;30.60;;
23082;SDS011;11709;52.420;10.538;2022-12-29T03:34:39;31.77;;;30.17;;
23082;SDS011;11709;52.420;10.538;2022-12-29T03:38:46;31.83;;;30.20;;
23082;SDS011;11709;52.420;10.538;2022-12-29T03:42:50;31.00;;;29.40;;
23082;SDS011;11709;52.420;10.538;2022-12-29T03:46:54;32.47;;;30.87;;
23082;SDS011;11709;52.420;10.538;2022-12-29T03:50:56;32.90;;;31.10;;
23082;SDS011;11709;52.420;10.538;2022-12-29T03:54:59;32.87;;;31.13;;
23082;SDS011;11709;52.420;10.538;2022-12-29T03:59:01;33.43;;;31.70;;
23082;SDS011;11709;52.420;10.538;2022-12-29T04:03:04;33.73;;;32.00;;
23082;SDS011;11709;52.420;10.538;2022-12-29T04:07:06;33.30;;;31.53;;
23082;SDS011;11709;52.420;10.538;2022-12-29T04:11:09;34.00;;;32.13;;
23082;SDS011;11709;52.420;10.538;2022-12-29T04:15:11;30.43;;;28.90;;
23082;SDS011;11709;52.420;10.538;2022-12-29T04:19:14;34.03;;;32.27;;
23082;SDS011;11709;52.420;10.538;2022-12-29T04:23:16;33.10;;;31.43;;
23082;SDS011;11709;52.420;10.538;2022-12-29T04:27:19;33.43;;;31.73;;
23082;SDS011;11709;52.420;10.538;2022-12-29T04:31:21;32.10;;;30.50;;
23082;SDS011;11709;52.420;10.538;2022-12-29T04:35:24;31.50;;;29.97;;
23082;SDS011;11709;52.420;10.538;2022-12-29T04:39:26;32.87;;;31.23;;
23082;SDS011;11709;52.420;10.538;2022-12-29T04:43:29;30.87;;;29.30;;
23082;SDS011;11709;52.420;10.538;2022-12-29T04:47:31;30.60;;;29.17;;
23082;SDS011;11709;52.420;10.538;2022-12-29T04:51:34;32.40;;;30.80;;
23082;SDS011;11709;52.420;10.538;2022-12-29T04:55:36;33.67;;;32.00;;
23082;SDS011;11709;52.420;10.538;2022-12-29T04:59:39;33.23;;;31.53;;
23082;SDS011;11709;52.420;10.538;2022-12-29T05:03:42;32.80;;;31.10;;
23082;SDS011;11709;52.420;10.538;2022-12-29T05:07:44;31.07;;;29.53;;
23082;SDS011;11709;52.420;10.538;2022-12-29T05:11:47;30.97;;;29.37;;
23082;SDS011;11709;52.420;10.538;2022-12-29T05:15:50;33.07;;;31.47;;
23082;SDS011;11709;52.420;10.538;2022-12-29T05:19:54;33.20;;;31.53;;
23082;SDS011;11709;52.420;10.538;2022-12-29T05:23:56;33.87;;;32.17;;
23082;SDS011;11709;52.420;10.538;2022-12-29T05:27:59;35.27;;;33.43;;
23082;SDS011;11709;52.420;10.538;2022-12-29T05:32:01;35.70;;;33.83;;
23082;SDS011;11709;52.420;10.538;2022-12-29T05:36:09;35.13;;;33.37;;
23082;SDS011;11709;52.420;10.538;2022-12-29T05:40:10;35.10;;;33.27;;
23082;SDS011;11709;52.420;10.538;2022-12-29T05:44:13;33.50;;;31.80;;
23082;SDS011;11709;52.420;10.538;2022-12-29T05:48:15;32.90;;;31.20;;
23082;SDS011;11709;52.420;10.538;2022-12-29T05:52:18;36.57;;;34.77;;
23082;SDS011;11709;52.420;10.538;2022-12-29T05:56:21;35.27;;;33.40;;
23082;SDS011;11709;52.420;10.538;2022-12-29T06:00:24;34.67;;;32.93;;
23082;SDS011;11709;52.420;10.538;2022-12-29T06:04:26;31.47;;;29.93;;
23082;SDS011;11709;52.420;10.538;2022-12-29T06:08:29;32.27;;;30.67;;
23082;SDS011;11709;52.420;10.538;2022-12-29T06:12:31;33.10;;;31.37;;
23082;SDS011;11709;52.420;10.538;2022-12-29T06:16:34;32.60;;;31.07;;
23082;SDS011;11709;52.420;10.538;2022-12-29T06:20:36;35.13;;;33.37;;
23082;SDS011;11709;52.420;10.538;2022-12-29T06:24:39;33.17;;;31.43;;
23082;SDS011;11709;52.420;10.538;2022-12-29T06:28:42;35.70;;;33.97;;
23082;SDS011;11709;52.420;10.538;2022-12-29T06:32:44;32.97;;;31.33;;
23082;SDS011;11709;52.420;10.538;2022-12-29T06:36:47;34.53;;;32.73;;
23082;SDS011;11709;52.420;10.538;2022-12-29T06:40:49;36.37;;;34.50;;
23082;SDS011;11709;52.420;10.538;2022-12-29T06:44:52;37.67;;;35.80;;
23082;SDS011;11709;52.420;10.538;2022-12-29T06:48:54;37.20;;;35.27;;
23082;SDS011;11709;52.420;10.538;2022-12-29T06:52:57;35.90;;;34.07;;
23082;SDS011;11709;52.420;10.538;2022-12-29T06:56:59;41.00;;;38.90;;
23082;SDS011;11709;52.420;10.538;2022-12-29T07:01:02;34.23;;;32.40;;
23082;SDS011;11709;52.420;10.538;2022-12-29T07:05:05;31.80;;;30.10;;
23082;SDS011;11709;52.420;10.538;2022-12-29T07:09:09;31.87;;;30.23;;
23082;SDS011;11709;52.420;10.538;2022-12-29T07:13:12;33.65;;;31.90;;
23082;SDS011;11709;52.420;10.538;2022-12-29T07:17:14;33.67;;;31.97;;
23082;SDS011;11709;52.420;10.538;2022-12-29T07:21:17;32.97;;;31.13;;
23082;SDS011;11709;52.420;10.538;2022-12-29T07:25:20;36.00;;;33.97;;
23082;SDS011;11709;52.420;10.538;2022-12-29T07:29:23;34.10;;;32.27;;
23082;SDS011;11709;52.420;10.538;2022-12-29T07:33:27;34.87;;;33.03;;
23082;SDS011;11709;52.420;10.538;2022-12-29T07:37:30;33.87;;;32.20;;
23082;SDS011;11709;52.420;10.538;2022-12-29T07:41:33;34.27;;;32.50;;
23082;SDS011;11709;52.420;10.538;2022-12-29T07:45:35;34.80;;;33.00;;
23082;SDS011;11709;52.420;10.538;2022-12-29T07:49:38;35.37;;;33.60;;
23082;SDS011;11709;52.420;10.538;2022-12-29T07:53:40;35.43;;;33.60;;
23082;SDS011;11709;52.420;10.538;2022-12-29T07:57:43;40.90;;;38.83;;
23082;SDS011;11709;52.420;10.538;2022-12-29T08:01:45;39.97;;;38.00;;
23082;SDS011;11709;52.420;10.538;2022-12-29T08:05:49;38.67;;;36.80;;
23082;SDS011;11709;52.420;10.538;2022-12-29T08:09:51;36.70;;;34.83;;
23082;SDS011;11709;52.420;10.538;2022-12-29T08:13:54;37.03;;;35.20;;
23082;SDS011;11709;52.420;10.538;2022-12-29T08:17:56;34.93;;;33.10;;
23082;SDS011;11709;52.420;10.538;2022-12-29T08:21:59;39.87;;;37.90;;
23082;SDS011;11709;52.420;10.538;2022-12-29T08:26:03;37.53;;;35.70;;
23082;SDS011;11709;52.420;10.538;2022-12-29T08:30:07;36.23;;;34.47;;
23082;SDS011;11709;52.420;10.538;2022-12-29T08:34:10;38.03;;;36.20;;
23082;SDS011;11709;52.420;10.538;2022-12-29T08:38:13;41.33;;;39.30;;
23082;SDS011;11709;52.420;10.538;2022-12-29T08:42:15;42.00;;;39.97;;
23082;SDS011;11709;52.420;10.538;2022-12-29T08:46:18;44.13;;;41.93;;
23082;SDS011;11709;52.420;10.538;2022-12-29T08:50:20;41.40;;;39.47;;
23082;SDS011;11709;52.420;10.538;2022-12-29T08:54:23;40.40;;;38.47;;
23082;SDS011;11709;52.420;10.538;2022-12-29T08:58:25;44.97;;;42.77;;
23082;SDS011;11709;52.420;10.538;2022-12-29T09:02:28;43.97;;;41.87;;
23082;SDS011;11709;52.420;10.538;2022-12-29T09:06:31;34.33;;;32.53;;
23082;SDS011;11709;52.420;10.538;2022-12-29T09:10:34;37.30;;;35.27;;
23082;SDS011;11709;52.420;10.538;2022-12-29T09:14:36;39.13;;;36.93;;
23082;SDS011;11709;52.420;10.538;2022-12-29T09:18:39;34.00;;;32.33;;
23082;SDS011;11709;52.420;10.538;2022-12-29T09:22:42;32.43;;;30.80;;
23082;SDS011;11709;52.420;10.538;2022-12-29T09:26:45;34.57;;;32.90;;
23082;SDS011;11709;52.420;10.538;2022-12-29T09:30:48;32.57;;;31.00;;
23082;SDS011;11709;52.420;10.538;2022-12-29T09:34:50;30.77;;;29.23;;
23082;SDS011;11709;52.420;10.538;2022-12-29T09:38:53;33.93;;;32.07;;
23082;SDS011;11709;52.420;10.538;2022-12-29T09:43:05;29.10;;;27.60;;
23082;SDS011;11709;52.420;10.538;2022-12-29T09:47:19;30.27;;;28.73;;
23082;SDS011;11709;52.420;10.538;2022-12-29T09:51:24;30.57;;;28.97;;
23082;SDS011;11709;52.420;10.538;2022-12-29T09:55:38;32.87;;;31.20;;
23082;SDS011;11709;52.420;10.538;2022-12-29T09:59:42;33.83;;;32.10;;
23082;SDS011;11709;52.420;10.538;2022-12-29T10:03:47;31.00;;;29.37;;
23082;SDS011;11709;52.420;10.538;2022-12-29T10:08:04;34.57;;;32.80;;
23082;SDS011;11709;52.420;10.538;2022-12-29T10:12:53;36.83;;;35.03;;
23082;SDS011;11709;52.420;10.538;2022-12-29T10:20:59;35.07;;;33.23;;
23082;SDS011;11709;52.420;10.538;2022-12-29T10:25:08;34.60;;;32.87;;
23082;SDS011;11709;52.420;10.538;2022-12-29T10:29:16;31.45;;;29.75;;
23082;SDS011;11709;52.420;10.538;2022-12-29T10:33:24;33.40;;;31.73;;
23082;SDS011;11709;52.420;10.538;2022-12-29T10:37:31;33.90;;;32.17;;
23082;SDS011;11709;52.420;10.538;2022-12-29T10:46:10;37.40;;;35.57;;
23082;SDS011;11709;52.420;10.538;2022-12-29T10:50:07;35.60;;;33.87;;
23082;SDS011;11709;52.420;10.538;2022-12-29T10:54:15;34.47;;;32.80;;
23082;SDS011;11709;52.420;10.538;2022-12-29T10:58:19;36.43;;;34.63;;
23082;SDS011;11709;52.420;10.538;2022-12-29T11:06:40;38.13;;;36.23;;
23082;SDS011;11709;52.420;10.538;2022-12-29T11:10:44;39.33;;;37.20;;
23082;SDS011;11709;52.420;10.538;2022-12-29T11:15:00;36.10;;;34.30;;
23082;SDS011;11709;52.420;10.538;2022-12-29T11:19:27;38.30;;;36.40;;
23082;SDS011;11709;52.420;10.538;2022-12-29T11:23:31;37.83;;;36.00;;
23082;SDS011;11709;52.420;10.538;2022-12-29T11:27:35;36.30;;;34.57;;
23082;SDS011;11709;52.420;10.538;2022-12-29T11:31:41;37.83;;;35.93;;
23082;SDS011;11709;52.420;10.538;2022-12-29T11:35:46;38.33;;;36.40;;
23082;SDS011;11709;52.420;10.538;2022-12-29T11:39:54;39.20;;;37.20;;
23082;SDS011;11709;52.420;10.538;2022-12-29T11:44:02;35.67;;;34.00;;
23082;SDS011;11709;52.420;10.538;2022-12-29T11:48:08;36.93;;;35.07;;
23082;SDS011;11709;52.420;10.538;2022-12-29T11:52:12;36.37;;;34.57;;
23082;SDS011;11709;52.420;10.538;2022-12-29T11:56:33;37.43;;;35.67;;
23082;SDS011;11709;52.420;10.538;2022-12-29T12:00:27;36.13;;;34.33;;
23082;SDS011;11709;52.420;10.538;2022-12-29T12:04:34;37.37;;;35.50;;
23082;SDS011;11709;52.420;10.538;2022-12-29T12:08:44;36.87;;;35.03;;
23082;SDS011;11709;52.420;10.538;2022-12-29T12:13:00;36.57;;;34.80;;
23082;SDS011;11709;52.420;10.538;2022-12-29T12:17:21;36.20;;;34.53;;
23082;SDS011;11709;52.420;10.538;2022-12-29T12:21:31;37.67;;;35.83;;
23082;SDS011;11709;52.420;10.538;2022-12-29T12:25:43;38.73;;;36.85;;
23082;SDS011;11709;52.420;10.538;2022-12-29T12:34:10;37.47;;;35.67;;
23082;SDS011;11709;52.420;10.538;2022-12-29T12:56:35;49.27;;;47.00;;
23082;SDS011;11709;52.420;10.538;2022-12-29T13:00:40;46.20;;;44.03;;
23082;SDS011;11709;52.420;10.538;2022-12-29T13:05:00;44.93;;;42.87;;
23082;SDS011;11709;52.420;10.538;2022-12-29T13:17:52;40.57;;;38.63;;
23082;SDS011;11709;52.420;10.538;2022-12-29T13:22:03;43.73;;;41.53;;
23082;SDS011;11709;52.420;10.538;2022-12-29T13:26:27;41.50;;;39.53;;
23082;SDS011;11709;52.420;10.538;2022-12-29T13:30:34;40.57;;;38.63;;
23082;SDS011;11709;52.420;10.538;2022-12-29T13:34:40;39.90;;;38.00;;
23082;SDS011;11709;52.420;10.538;2022-12-29T13:38:51;42.63;;;40.53;;
23082;SDS011;11709;52.420;10.538;2022-12-29T13:42:55;38.90;;;37.00;;
23082;SDS011;11709;52.420;10.538;2022-12-29T13:46:59;39.77;;;37.83;;
23082;SDS011;11709;52.420;10.538;2022-12-29T13:51:04;42.47;;;40.37;;
23082;SDS011;11709;52.420;10.538;2022-12-29T14:03:57;42.17;;;40.13;;
23082;SDS011;11709;52.420;10.538;2022-12-29T14:08:02;42.20;;;40.17;;
23082;SDS011;11709;52.420;10.538;2022-12-29T14:12:26;41.40;;;39.47;;
23082;SDS011;11709;52.420;10.538;2022-12-29T14:16:42;44.03;;;41.90;;
23082;SDS011;11709;52.420;10.538;2022-12-29T14:20:57;40.00;;;38.03;;
23082;SDS011;11709;52.420;10.538;2022-12-29T14:25:02;38.47;;;36.57;;
23082;SDS011;11709;52.420;10.538;2022-12-29T14:33:30;38.83;;;36.90;;
23082;SDS011;11709;52.420;10.538;2022-12-29T14:37:34;40.67;;;38.67;;
23082;SDS011;11709;52.420;10.538;2022-12-29T14:41:39;36.87;;;35.03;;
23082;SDS011;11709;52.420;10.538;2022-12-29T14:45:42;36.90;;;35.10;;
23082;SDS011;11709;52.420;10.538;2022-12-29T14:49:46;37.80;;;36.00;;
23082;SDS011;11709;52.420;10.538;2022-12-29T14:53:49;39.47;;;37.50;;
23082;SDS011;11709;52.420;10.538;2022-12-29T14:57:56;40.77;;;38.67;;
23082;SDS011;11709;52.420;10.538;2022-12-29T15:02:03;41.13;;;39.13;;
23082;SDS011;11709;52.420;10.538;2022-12-29T15:06:07;41.57;;;39.40;;
23082;SDS011;11709;52.420;10.538;2022-12-29T15:10:16;39.43;;;37.60;;
23082;SDS011;11709;52.420;10.538;2022-12-29T15:14:34;41.50;;;39.43;;
23082;SDS011;11709;52.420;10.538;2022-12-29T15:18:38;40.50;;;38.50;;
23082;SDS011;11709;52.420;10.538;2022-12-29T15:22:46;40.20;;;38.27;;
23082;SDS011;11709;52.420;10.538;2022-12-29T15:27:06;40.43;;;38.50;;
23082;SDS011;11709;52.420;10.538;2022-12-29T15:31:23;43.77;;;41.47;;
23082;SDS011;11709;52.420;10.538;2022-12-29T15:35:29;39.63;;;37.77;;
23082;SDS011;11709;52.420;10.538;2022-12-29T15:39:30;38.83;;;36.97;;
23082;SDS011;11709;52.420;10.538;2022-12-29T15:48:10;39.17;;;37.27;;
23082;SDS011;11709;52.420;10.538;2022-12-29T15:52:13;43.93;;;41.67;;
23082;SDS011;11709;52.420;10.538;2022-12-29T15:56:20;39.37;;;37.43;;
23082;SDS011;11709;52.420;10.538;2022-12-29T16:00:27;40.43;;;38.43;;
23082;SDS011;11709;52.420;10.538;2022-12-29T16:04:31;41.63;;;39.63;;
23082;SDS011;11709;52.420;10.538;2022-12-29T16:08:35;40.50;;;38.57;;
23082;SDS011;11709;52.420;10.538;2022-12-29T16:12:40;40.17;;;38.20;;
23082;SDS011;11709;52.420;10.538;2022-12-29T16:16:43;39.90;;;38.00;;
23082;SDS011;11709;52.420;10.538;2022-12-29T16:20:47;38.53;;;36.80;;
23082;SDS011;11709;52.420;10.538;2022-12-29T16:24:50;43.17;;;41.10;;
23082;SDS011;11709;52.420;10.538;2022-12-29T16:28:55;41.40;;;39.27;;
23082;SDS011;11709;52.420;10.538;2022-12-29T16:33:03;42.03;;;39.97;;
23082;SDS011;11709;52.420;10.538;2022-12-29T16:41:33;38.23;;;36.40;;
23082;SDS011;11709;52.420;10.538;2022-12-29T16:49:51;41.47;;;39.40;;
23082;SDS011;11709;52.420;10.538;2022-12-29T16:53:55;34.93;;;33.20;;
23082;SDS011;11709;52.420;10.538;2022-12-29T16:57:58;37.83;;;35.90;;
23082;SDS011;11709;52.420;10.538;2022-12-29T17:02:05;44.30;;;41.83;;
23082;SDS011;11709;52.420;10.538;2022-12-29T17:06:19;36.27;;;34.43;;
23082;SDS011;11709;52.420;10.538;2022-12-29T17:10:18;39.07;;;36.87;;
23082;SDS011;11709;52.420;10.538;2022-12-29T17:18:40;40.63;;;38.50;;
23082;SDS011;11709;52.420;10.538;2022-12-29T17:22:46;40.83;;;38.70;;
23082;SDS011;11709;52.420;10.538;2022-12-29T17:26:53;40.03;;;38.00;;
23082;SDS011;11709;52.420;10.538;2022-12-29T17:31:00;38.93;;;36.93;;
23082;SDS011;11709;52.420;10.538;2022-12-29T17:35:03;37.03;;;35.23;;
23082;SDS011;11709;52.420;10.538;2022-12-29T17:39:07;37.23;;;35.37;;
23082;SDS011;11709;52.420;10.538;2022-12-29T17:43:15;46.60;;;44.20;;
23082;SDS011;11709;52.420;10.538;2022-12-29T17:47:15;39.33;;;37.27;;
23082;SDS011;11709;52.420;10.538;2022-12-29T17:51:19;39.27;;;37.07;;
23082;SDS011;11709;52.420;10.538;2022-12-29T17:55:24;40.07;;;37.93;;
23082;SDS011;11709;52.420;10.538;2022-12-29T17:59:27;40.60;;;38.47;;
23082;SDS011;11709;52.420;10.538;2022-12-29T18:03:39;37.87;;;36.03;;
23082;SDS011;11709;52.420;10.538;2022-12-29T18:07:43;35.47;;;33.73;;
23082;SDS011;11709;52.420;10.538;2022-12-29T18:11:46;36.47;;;34.63;;
23082;SDS011;11709;52.420;10.538;2022-12-29T18:15:49;35.27;;;33.47;;
23082;SDS011;11709;52.420;10.538;2022-12-29T18:19:52;41.47;;;39.23;;
23082;SDS011;11709;52.420;10.538;2022-12-29T18:23:55;38.93;;;36.93;;
23082;SDS011;11709;52.420;10.538;2022-12-29T18:27:57;39.43;;;37.47;;
23082;SDS011;11709;52.420;10.538;2022-12-29T18:32:01;39.07;;;37.10;;
23082;SDS011;11709;52.420;10.538;2022-12-29T18:36:08;38.40;;;36.53;;
23082;SDS011;11709;52.420;10.538;2022-12-29T18:40:13;38.63;;;36.73;;
23082;SDS011;11709;52.420;10.538;2022-12-29T18:44:20;36.67;;;34.93;;
23082;SDS011;11709;52.420;10.538;2022-12-29T18:48:27;43.52;;;41.18;;
23082;SDS011;11709;52.420;10.538;2022-12-29T18:52:31;38.73;;;36.53;;
23082;SDS011;11709;52.420;10.538;2022-12-29T18:56:35;38.47;;;36.43;;
23082;SDS011;11709;52.420;10.538;2022-12-29T19:00:40;35.87;;;34.00;;
23082;SDS011;11709;52.420;10.538;2022-12-29T19:04:43;35.90;;;34.03;;
23082;SDS011;11709;52.420;10.538;2022-12-29T19:08:49;47.30;;;44.47;;
23082;SDS011;11709;52.420;10.538;2022-12-29T19:12:58;36.30;;;34.37;;
23082;SDS011;11709;52.420;10.538;2022-12-29T19:17:02;38.08;;;36.15;;
23082;SDS011;11709;52.420;10.538;2022-12-29T19:21:08;35.90;;;34.13;;
23082;SDS011;11709;52.420;10.538;2022-12-29T19:25:11;35.53;;;33.70;;
23082;SDS011;11709;52.420;10.538;2022-12-29T19:29:14;37.47;;;35.47;;
23082;SDS011;11709;52.420;10.538;2022-12-29T19:33:16;34.50;;;32.83;;
23082;SDS011;11709;52.420;10.538;2022-12-29T19:37:20;37.97;;;36.13;;
23082;SDS011;11709;52.420;10.538;2022-12-29T19:41:22;37.70;;;35.83;;
23082;SDS011;11709;52.420;10.538;2022-12-29T19:45:25;35.63;;;33.90;;
23082;SDS011;11709;52.420;10.538;2022-12-29T19:49:28;36.67;;;34.83;;
23082;SDS011;11709;52.420;10.538;2022-12-29T19:53:30;36.40;;;34.63;;
23082;SDS011;11709;52.420;10.538;2022-12-29T19:57:34;36.63;;;34.77;;
23082;SDS011;11709;52.420;10.538;2022-12-29T20:01:37;35.97;;;34.07;;
23082;SDS011;11709;52.420;10.538;2022-12-29T20:05:39;33.30;;;31.77;;
23082;SDS011;11709;52.420;10.538;2022-12-29T20:09:42;32.87;;;31.20;;
23082;SDS011;11709;52.420;10.538;2022-12-29T20:13:45;33.40;;;31.70;;
23082;SDS011;11709;52.420;10.538;2022-12-29T20:17:48;36.53;;;34.63;;
23082;SDS011;11709;52.420;10.538;2022-12-29T20:21:50;33.50;;;31.90;;
23082;SDS011;11709;52.420;10.538;2022-12-29T20:25:54;34.77;;;33.07;;
23082;SDS011;11709;52.420;10.538;2022-12-29T20:29:57;33.70;;;32.03;;
23082;SDS011;11709;52.420;10.538;2022-12-29T20:34:00;35.00;;;33.23;;
23082;SDS011;11709;52.420;10.538;2022-12-29T20:38:04;34.83;;;33.13;;
23082;SDS011;11709;52.420;10.538;2022-12-29T20:42:07;35.03;;;33.27;;
23082;SDS011;11709;52.420;10.538;2022-12-29T20:46:11;36.90;;;35.03;;
23082;SDS011;11709;52.420;10.538;2022-12-29T20:50:15;36.20;;;34.30;;
23082;SDS011;11709;52.420;10.538;2022-12-29T20:54:18;33.37;;;31.70;;
23082;SDS011;11709;52.420;10.538;2022-12-29T20:58:20;35.67;;;33.83;;
23082;SDS011;11709;52.420;10.538;2022-12-29T21:02:23;35.43;;;33.60;;
23082;SDS011;11709;52.420;10.538;2022-12-29T21:06:25;34.57;;;32.83;;
23082;SDS011;11709;52.420;10.538;2022-12-29T21:10:28;35.23;;;33.47;;
23082;SDS011;11709;52.420;10.538;2022-12-29T21:14:30;36.90;;;35.10;;
23082;SDS011;11709;52.420;10.538;2022-12-29T21:18:34;35.27;;;33.50;;
23082;SDS011;11709;52.420;10.538;2022-12-29T21:22:36;33.90;;;32.27;;
23082;SDS011;11709;52.420;10.538;2022-12-29T21:26:39;33.80;;;31.97;;
23082;SDS011;11709;52.420;10.538;2022-12-29T21:30:42;35.80;;;33.97;;
23082;SDS011;11709;52.420;10.538;2022-12-29T21:34:45;36.43;;;34.60;;
23082;SDS011;11709;52.420;10.538;2022-12-29T21:38:48;41.87;;;39.33;;
23082;SDS011;11709;52.420;10.538;2022-12-29T21:42:50;36.40;;;34.57;;
23082;SDS011;11709;52.420;10.538;2022-12-29T21:46:53;34.03;;;32.33;;
23082;SDS011;11709;52.420;10.538;2022-12-29T21:50:57;36.53;;;34.63;;
23082;SDS011;11709;52.420;10.538;2022-12-29T21:55:25;31.60;;;29.93;;
23082;SDS011;11709;52.420;10.538;2022-12-29T21:59:28;33.50;;;31.83;;
23082;SDS011;11709;52.420;10.538;2022-12-29T22:03:48;34.10;;;32.40;;
23082;SDS011;11709;52.420;10.538;2022-12-29T22:08:09;34.43;;;32.67;;
23082;SDS011;11709;52.420;10.538;2022-12-29T22:12:30;31.70;;;30.13;;
23082;SDS011;11709;52.420;10.538;2022-12-29T22:16:50;31.63;;;29.97;;
23082;SDS011;11709;52.420;10.538;2022-12-29T22:20:53;35.67;;;33.80;;
23082;SDS011;11709;52.420;10.538;2022-12-29T22:24:55;31.67;;;30.00;;
23082;SDS011;11709;52.420;10.538;2022-12-29T22:28:58;35.73;;;33.73;;
23082;SDS011;11709;52.420;10.538;2022-12-29T22:33:00;34.27;;;32.50;;
23082;SDS011;11709;52.420;10.538;2022-12-29T22:37:03;34.53;;;32.77;;
23082;SDS011;11709;52.420;10.538;2022-12-29T22:41:05;33.97;;;32.20;;
23082;SDS011;11709;52.420;10.538;2022-12-29T22:45:08;35.03;;;33.23;;
23082;SDS011;11709;52.420;10.538;2022-12-29T22:49:11;33.80;;;32.10;;
23082;SDS011;11709;52.420;10.538;2022-12-29T22:53:13;32.80;;;31.03;;
23082;SDS011;11709;52.420;10.538;2022-12-29T22:57:16;32.90;;;31.30;;
23082;SDS011;11709;52.420;10.538;2022-12-29T23:01:18;33.67;;;31.90;;
23082;SDS011;11709;52.420;10.538;2022-12-29T23:05:24;35.93;;;34.00;;
23082;SDS011;11709;52.420;10.538;2022-12-29T23:09:28;32.57;;;31.00;;
23082;SDS011;11709;52.420;10.538;2022-12-29T23:13:38;36.33;;;34.40;;
23082;SDS011;11709;52.420;10.538;2022-12-29T23:17:46;34.75;;;32.98;;
23082;SDS011;11709;52.420;10.538;2022-12-29T23:21:55;37.20;;;35.17;;
23082;SDS011;11709;52.420;10.538;2022-12-29T23:25:59;39.30;;;37.20;;
23082;SDS011;11709;52.420;10.538;2022-12-29T23:30:04;39.37;;;37.10;;
23082;SDS011;11709;52.420;10.538;2022-12-29T23:34:08;36.70;;;34.80;;
23082;SDS011;11709;52.420;10.538;2022-12-29T23:38:11;34.43;;;32.73;;
23082;SDS011;11709;52.420;10.538;2022-12-29T23:42:14;35.23;;;33.47;;
23082;SDS011;11709;52.420;10.538;2022-12-29T23:46:17;35.63;;;33.80;;
23082;SDS011;11709;52.420;10.538;2022-12-29T23:50:21;35.10;;;33.33;;
23082;SDS011;11709;52.420;10.538;2022-12-29T23:54:24;31.30;;;29.70;;
23082;SDS011;11709;52.420;10.538;2022-12-29T23:58:30;36.87;;;34.97;;
